Terminal Aerodrome Forecast
Issued by NWS Upton, NY

Home | Current Version | Previous Version | Text Only | Print | Product List | Glossary On
Versions: 1 2 3 4 5 6 7 8 9 10 11 12 13 14 15 16 17 18 19 20 21 22 23 24 25 26 27 28 29 30 31 32 33 34
000
FTUS41 KOKX 291605 AAC
TAFLGA
TAF AMD
KLGA 291605Z 2916/3012 06010KT P6SM BKN015 OVC025
      TEMPO 2916/2917 5SM -RA BR
     FM291800 07010KT 5SM -DZ BR OVC015
     FM292300 11007KT 5SM BR OVC015
     FM300500 11005KT 5SM BR OVC009
     FM300700 11005KT 5SM BR OVC006=

USA.gov is the U.S. government's official web portal to all federal, state and local government web resources and services.